Accueil
METAR-TAF:

METAR-TAF

Aéroports :

Aéroport de Badajoz

Badajoz, Espagne

latitude: 38-53N, longitude: 006-49W, altitude: 185 m

Observation

Le bulletin a été fait il y a 1 heure et 0 minutes, à 19:00 UTC
Vent 4 kt de sud, variant entre sud/sud-est et sud-ouest
Température 26°C
Humidité 45%
Pression 1013 hPa
Visibilité 10 km ou plus
pas de nuages en-dessous de 1500 mètres et pas de cumulonimbus.

METAR: LEBZ 011900Z AUTO 19004KT 160V220 CAVOK 26/13 Q1013

Heure: 22:00 (20:00 UTC)

Prévision

Le bulletin a été fait il y a 3 heures et 0 minutes, à 17:00 UTC
Prévision valable du 01 à 18 UTC au 02 à 18 UTC
Vent 5 kt de sud/sud-ouest
Visibilité 10 km ou plus
pas de nuages en-dessous de 1500 mètres et pas de cumulonimbus.
Probabilité 30% :
Temporairement
du 02 à 05 UTC au 02 à 08 UTC
Nuages fragmentés à une hauteur de 1200 ft

TAF: LEBZ 011700Z 0118/0218 20005KT CAVOK TX28/0215Z TN17/0205Z PROB30 TEMPO 0205/0208 BKN012

Observations et prévisions météorologiques de plus de 4000 aéroports (messages METAR et TAF).

Les stations disponibles sont représentées par des disques jaunes et rouges sur la carte.

Passer la souris dessus pour voir le nom de la station.

Cliquer dessus pour voir les observations et prévisions météorologiques.

Pour changer de carte: cliquez sur les boutons verts avec une croix noire pour zoomer, sur le bouton vert avec un tiret pour effectuer un zoom arrière, ou sur les flèches vertes pour les cartes adjacentes.


METAR-TAF: